Time;durP1;ratioP1;P1;durP2;ratioP2;P2;SDS_P1;SDS_P2;PMS_P1;PMS_P2;Temp;Humidity;BMP_temperature;BMP_pressure;BME280_temperature;BME280_humidity;BME280_pressure;Samples;Min_cycle;Max_cycle;Signal;HPM_P1;HPM_P2
2022/07/23 00:00:27;;;;;;;8.65;5.03;;;;;;;16.29;100.00;100599.44;1809053;78;20931;-76
2022/07/23 00:02:53;;;;;;;10.65;5.28;;;;;;;16.26;100.00;100593.23;1809325;78;21492;-74
2022/07/23 00:05:19;;;;;;;13.68;5.72;;;;;;;16.23;100.00;100594.62;1809282;78;21015;-77
2022/07/23 00:07:45;;;;;;;9.48;5.25;;;;;;;16.21;100.00;100594.70;1809287;79;21000;-77
2022/07/23 00:10:11;;;;;;;9.68;5.55;;;;;;;16.20;100.00;100604.74;1813591;78;21141;-76
2022/07/23 00:12:38;;;;;;;9.95;5.40;;;;;;;16.18;100.00;100597.45;1809088;78;20964;-77
2022/07/23 00:15:06;;;;;;;9.80;5.65;;;;;;;16.15;100.00;100594.50;1809420;78;21488;-74
2022/07/23 00:17:33;;;;;;;9.60;5.55;;;;;;;16.15;100.00;100592.61;1809467;78;21043;-84
2022/07/23 00:19:59;;;;;;;8.23;5.55;;;;;;;16.14;100.00;100595.05;1809442;78;21003;-77
2022/07/23 00:22:25;;;;;;;11.55;6.00;;;;;;;16.11;100.00;100592.93;1809508;79;21063;-82
2022/07/23 00:24:51;;;;;;;14.70;5.80;;;;;;;16.11;100.00;100583.41;1808812;78;21066;-77
2022/07/23 00:27:17;;;;;;;9.88;5.47;;;;;;;16.09;100.00;100581.57;1809308;78;21629;-76
2022/07/23 00:29:43;;;;;;;17.27;6.00;;;;;;;16.09;100.00;100591.08;1809571;78;20868;-77
2022/07/23 00:32:09;;;;;;;11.57;5.20;;;;;;;16.07;100.00;100587.28;1809375;78;20825;-76
2022/07/23 00:34:35;;;;;;;7.85;5.37;;;;;;;16.07;100.00;100583.21;1809837;79;21109;-76
2022/07/23 00:37:01;;;;;;;13.88;5.80;;;;;;;16.07;100.00;100580.49;1809068;78;21063;-77
2022/07/23 00:39:27;;;;;;;9.73;5.92;;;;;;;16.07;100.00;100579.69;1809430;78;20841;-78
2022/07/23 00:41:54;;;;;;;11.38;5.83;;;;;;;16.07;100.00;100586.48;1808963;79;21031;-75
2022/07/23 00:44:28;;;;;;;8.33;5.33;;;;;;;16.06;100.00;100578.89;1809461;78;21082;-78
2022/07/23 00:46:57;;;;;;;7.55;5.08;;;;;;;16.06;100.00;100587.05;1809349;78;21181;-77
2022/07/23 00:49:28;;;;;;;11.50;5.40;;;;;;;16.06;100.00;100587.57;1781783;80;21028;-82
2022/07/23 00:51:55;;;;;;;10.08;5.42;;;;;;;16.06;100.00;100587.57;1744302;80;21594;-78
2022/07/23 00:54:25;;;;;;;8.25;5.33;;;;;;;16.05;100.00;100590.84;1744150;80;20980;-77
2022/07/23 00:56:51;;;;;;;12.98;5.83;;;;;;;16.03;100.00;100595.80;1744224;80;21681;-76
2022/07/23 00:59:17;;;;;;;11.45;5.37;;;;;;;16.02;100.00;100593.36;1744153;82;21105;-77
2022/07/23 01:01:48;;;;;;;14.73;5.92;;;;;;;16.00;100.00;100592.31;1743886;80;21094;-82
2022/07/23 01:04:15;;;;;;;13.10;5.50;;;;;;;16.00;100.00;100598.27;1743711;82;20999;-74
2022/07/23 01:06:41;;;;;;;12.05;5.67;;;;;;;15.98;100.00;100596.42;1743809;80;21066;-77
2022/07/23 01:09:07;;;;;;;12.65;5.95;;;;;;;15.98;100.00;100599.14;1744300;80;21102;-76
2022/07/23 01:11:36;;;;;;;15.18;5.78;;;;;;;15.98;100.00;100597.22;1744333;80;21090;-78
2022/07/23 01:14:15;;;;;;;10.32;5.75;;;;;;;15.98;100.00;100596.42;1744578;80;20996;-77
2022/07/23 01:16:43;;;;;;;11.10;5.92;;;;;;;15.96;100.00;100602.70;1674627;85;21019;-76
2022/07/23 01:19:10;;;;;;;19.00;5.90;;;;;;;15.94;100.00;100602.17;1674692;85;21058;-76
2022/07/23 01:21:46;;;;;;;15.63;6.17;;;;;;;15.89;100.00;100604.44;1674628;85;21133;-77
2022/07/23 01:24:13;;;;;;;12.25;6.45;;;;;;;15.88;100.00;100609.07;1674800;84;21301;-79
2022/07/23 01:26:43;;;;;;;10.80;6.15;;;;;;;15.89;100.00;100612.03;1674621;85;21075;-77
2022/07/23 01:29:10;;;;;;;9.90;5.92;;;;;;;15.86;100.00;100608.55;1674796;85;21131;-76
2022/07/23 01:31:36;;;;;;;14.00;5.90;;;;;;;15.84;100.00;100605.31;1674801;85;21563;-77
2022/07/23 01:34:03;;;;;;;10.05;5.78;;;;;;;15.82;100.00;100612.94;1674617;85;21132;-82
2022/07/23 01:36:30;;;;;;;9.75;5.62;;;;;;;15.81;100.00;100615.41;1670006;84;21126;-77
2022/07/23 01:38:56;;;;;;;13.58;5.87;;;;;;;15.76;100.00;100624.98;1674461;85;21044;-77
2022/07/23 01:41:22;;;;;;;13.08;6.10;;;;;;;15.75;100.00;100627.45;1674850;83;21063;-77
2022/07/23 01:43:48;;;;;;;12.40;6.65;;;;;;;15.74;100.00;100626.41;1674840;84;21528;-76
2022/07/23 01:46:14;;;;;;;10.85;6.03;;;;;;;15.72;100.00;100625.33;1668906;84;21003;-75
2022/07/23 01:48:40;;;;;;;13.32;6.28;;;;;;;15.71;100.00;100627.80;1679024;82;21185;-77
2022/07/23 01:51:07;;;;;;;11.60;6.10;;;;;;;15.70;100.00;100628.08;1675435;83;21044;-77
2022/07/23 01:53:33;;;;;;;11.73;6.60;;;;;;;15.66;100.00;100625.91;1699049;82;21064;-78
2022/07/23 01:56:00;;;;;;;13.83;6.10;;;;;;;15.66;100.00;100629.19;1699028;82;21010;-78
2022/07/23 01:58:26;;;;;;;9.43;6.22;;;;;;;15.65;100.00;100631.10;1698884;82;20998;-77
2022/07/23 02:00:54;;;;;;;10.98;6.42;;;;;;;15.65;100.00;100637.09;1698721;82;21940;-77
2022/07/23 02:03:20;;;;;;;10.90;6.25;;;;;;;15.63;100.00;100639.28;1698515;82;21525;-76
2022/07/23 02:05:47;;;;;;;14.30;6.45;;;;;;;15.62;100.00;100641.75;1698910;82;21037;-76
2022/07/23 02:08:13;;;;;;;11.97;6.25;;;;;;;15.62;100.00;100647.19;1699033;82;21030;-82
2022/07/23 02:10:39;;;;;;;15.50;7.37;;;;;;;15.59;100.00;100646.41;1699065;84;21048;-77
2022/07/23 02:13:35;;;;;;;15.32;6.78;;;;;;;15.61;100.00;100657.22;1756796;78;21076;-77
2022/07/23 02:16:01;;;;;;;13.32;6.70;;;;;;;15.61;100.00;100652.34;1805467;79;20987;-77
2022/07/23 02:18:27;;;;;;;11.03;6.28;;;;;;;15.58;100.00;100652.37;1809426;78;20900;-75
2022/07/23 02:20:53;;;;;;;13.03;7.30;;;;;;;15.59;100.00;100656.72;1809308;78;21465;-74
2022/07/23 02:23:19;;;;;;;16.45;6.97;;;;;;;15.61;100.00;100657.77;1809536;79;20837;-77
2022/07/23 02:25:46;;;;;;;13.85;6.17;;;;;;;15.64;100.00;100666.14;1809335;78;21048;-77
2022/07/23 02:28:11;;;;;;;13.72;7.10;;;;;;;15.68;100.00;100662.34;1809156;78;21357;-77
2022/07/23 02:30:39;;;;;;;14.20;6.85;;;;;;;15.71;100.00;100669.11;1809503;78;20994;-75
2022/07/23 02:33:05;;;;;;;11.05;6.42;;;;;;;15.77;100.00;100673.37;1808938;78;20972;-77
2022/07/23 02:35:31;;;;;;;14.90;7.15;;;;;;;15.80;100.00;100668.16;1809374;78;20999;-77
2022/07/23 02:37:57;;;;;;;11.90;7.03;;;;;;;15.84;100.00;100677.33;1813212;78;21200;-77
2022/07/23 02:40:22;;;;;;;11.40;6.65;;;;;;;15.92;100.00;100677.23;1820604;78;21022;-83
2022/07/23 02:42:49;;;;;;;20.62;7.17;;;;;;;16.01;100.00;100676.02;1820301;78;20891;-77
2022/07/23 02:45:15;;;;;;;15.08;7.22;;;;;;;16.05;100.00;100680.55;1820458;78;21097;-75
2022/07/23 02:47:41;;;;;;;14.63;6.72;;;;;;;16.12;100.00;100685.65;1820552;78;20872;-77
2022/07/23 02:50:08;;;;;;;14.00;7.00;;;;;;;16.15;100.00;100678.26;1820526;78;21532;-77
2022/07/23 02:52:34;;;;;;;11.12;6.60;;;;;;;16.24;100.00;100681.13;1820386;78;21093;-78
2022/07/23 02:55:00;;;;;;;11.10;6.58;;;;;;;16.32;100.00;100684.50;1820539;78;20971;-77
2022/07/23 02:57:26;;;;;;;8.85;6.15;;;;;;;16.39;100.00;100681.43;1815453;78;21074;-81
2022/07/23 02:59:52;;;;;;;11.25;6.62;;;;;;;16.43;100.00;100682.44;1820501;78;20955;-81
2022/07/23 03:02:18;;;;;;;12.40;6.30;;;;;;;16.49;100.00;100678.53;1820257;78;21022;-78
2022/07/23 03:04:44;;;;;;;10.63;6.55;;;;;;;16.55;100.00;100673.26;1820472;78;20852;-79
2022/07/23 03:07:10;;;;;;;9.50;6.33;;;;;;;16.57;100.00;100673.22;1820416;78;20971;-77
2022/07/23 03:09:37;;;;;;;9.83;6.45;;;;;;;16.74;100.00;100665.06;1820330;78;20975;-78
2022/07/23 03:12:03;;;;;;;11.18;6.47;;;;;;;16.74;100.00;100665.06;1820410;78;20908;-78
2022/07/23 03:14:29;;;;;;;10.32;6.33;;;;;;;16.83;100.00;100672.02;1820571;78;21837;-76
2022/07/23 03:16:55;;;;;;;10.65;6.20;;;;;;;16.92;100.00;100675.66;1820391;78;20856;-78
2022/07/23 03:19:21;;;;;;;8.10;5.92;;;;;;;17.02;100.00;100675.45;1820458;78;22119;-77
2022/07/23 03:21:47;;;;;;;8.98;5.90;;;;;;;17.19;100.00;100677.59;1820387;78;20984;-77
2022/07/23 03:24:14;;;;;;;14.95;6.05;;;;;;;17.58;100.00;100679.78;1820410;78;20932;-76
2022/07/23 03:26:40;;;;;;;10.35;5.80;;;;;;;18.09;100.00;100676.55;1820230;78;21136;-78
2022/07/23 03:29:06;;;;;;;9.98;5.47;;;;;;;18.71;100.00;100677.23;1820477;78;20943;-76
2022/07/23 03:31:32;;;;;;;10.98;5.30;;;;;;;19.30;100.00;100673.75;1820466;78;20963;-78
2022/07/23 03:33:58;;;;;;;7.65;5.62;;;;;;;19.84;100.00;100683.14;1820479;78;20991;-78
2022/07/23 03:36:25;;;;;;;10.88;5.50;;;;;;;20.48;100.00;100672.92;1820393;78;21023;-79
2022/07/23 03:38:51;;;;;;;13.90;5.78;;;;;;;21.02;100.00;100677.39;1813081;78;21116;-79
2022/07/23 03:41:19;;;;;;;8.95;5.30;;;;;;;21.46;100.00;100674.71;1809286;78;20975;-78
2022/07/23 03:43:45;;;;;;;6.28;4.95;;;;;;;21.87;100.00;100670.41;1809249;78;21058;-79
2022/07/23 03:46:11;;;;;;;7.67;5.12;;;;;;;21.97;100.00;100667.83;1786712;79;20947;-79
2022/07/23 03:48:37;;;;;;;8.18;5.17;;;;;;;22.10;100.00;100676.38;1809198;78;21489;-79
2022/07/23 03:51:04;;;;;;;13.30;5.72;;;;;;;22.26;100.00;100681.27;1809284;78;22078;-80
2022/07/23 03:53:30;;;;;;;14.05;5.97;;;;;;;22.64;100.00;100676.95;1809284;78;21020;-79
2022/07/23 03:55:56;;;;;;;10.55;5.47;;;;;;;23.05;100.00;100682.09;1809298;78;20968;-79
2022/07/23 03:58:22;;;;;;;10.15;5.83;;;;;;;23.48;100.00;100691.74;1809220;78;21010;-79
2022/07/23 04:00:48;;;;;;;9.53;6.65;;;;;;;23.95;100.00;100685.73;1809219;78;20964;-79
2022/07/23 04:03:15;;;;;;;10.88;5.58;;;;;;;24.21;100.00;100687.48;1809239;79;21061;-78
2022/07/23 04:05:41;;;;;;;10.38;5.45;;;;;;;24.43;100.00;100686.73;1786506;79;20976;-79
2022/07/23 04:08:06;;;;;;;10.23;5.90;;;;;;;24.43;100.00;100679.27;1809116;78;20896;-80
2022/07/23 04:10:33;;;;;;;13.28;6.15;;;;;;;24.92;100.00;100682.33;1809173;78;20995;-80
2022/07/23 04:12:59;;;;;;;10.48;6.03;;;;;;;25.33;100.00;100672.73;1809487;78;21614;-81
2022/07/23 04:15:25;;;;;;;6.70;5.50;;;;;;;25.75;100.00;100677.63;1809364;78;21118;-81
2022/07/23 04:17:51;;;;;;;7.55;5.65;;;;;;;26.08;100.00;100679.73;1809356;78;21018;-81
2022/07/23 04:20:17;;;;;;;10.35;5.97;;;;;;;26.23;100.00;100681.02;1809160;78;21582;-80
2022/07/23 04:22:43;;;;;;;7.95;5.75;;;;;;;26.06;100.00;100678.72;1809127;78;21026;-83
2022/07/23 04:25:09;;;;;;;9.85;5.67;;;;;;;25.80;100.00;100675.17;1809324;78;20979;-81
2022/07/23 04:27:35;;;;;;;14.03;5.72;;;;;;;26.28;100.00;100677.17;1809293;78;21079;-78
2022/07/23 04:30:01;;;;;;;7.28;5.55;;;;;;;26.57;100.00;100681.91;1809203;78;21089;-81
2022/07/23 04:32:27;;;;;;;9.60;5.33;;;;;;;26.87;100.00;100684.23;1809133;78;21617;-82
2022/07/23 04:34:53;;;;;;;8.08;5.03;;;;;;;27.38;100.00;100680.33;1808881;78;20984;-82
2022/07/23 04:37:18;;;;;;;8.18;5.58;;;;;;;27.60;100.00;100682.26;1809081;78;20987;-82
2022/07/23 04:39:45;;;;;;;10.80;5.58;;;;;;;27.40;100.00;100689.07;1818391;78;20972;-79
2022/07/23 04:42:11;;;;;;;8.98;6.03;;;;;;;27.33;100.00;100687.00;1820381;78;20999;-82
2022/07/23 04:44:36;;;;;;;7.75;5.40;;;;;;;27.49;100.00;100690.98;1820426;78;20943;-82
2022/07/23 04:47:03;;;;;;;14.03;5.40;;;;;;;27.77;100.00;100687.05;1820267;78;20915;-83
2022/07/23 04:49:29;;;;;;;8.58;5.97;;;;;;;27.95;100.00;100694.23;1820628;78;21452;-81
2022/07/23 04:51:55;;;;;;;8.63;5.55;;;;;;;27.96;100.00;100687.52;1820390;78;21054;-82
2022/07/23 04:54:21;;;;;;;9.45;5.62;;;;;;;27.89;98.07;100697.92;1820409;78;21520;-82
2022/07/23 04:56:47;;;;;;;9.00;5.45;;;;;;;28.07;97.99;100694.79;1820423;78;20866;-81
2022/07/23 04:59:13;;;;;;;14.47;6.15;;;;;;;28.20;97.63;100692.56;1820441;78;20870;-84
2022/07/23 05:01:39;;;;;;;9.30;5.70;;;;;;;27.98;93.15;100697.05;1820451;78;20923;-83
2022/07/23 05:04:05;;;;;;;7.25;5.65;;;;;;;27.98;96.09;100689.33;1820556;78;21812;-80
2022/07/23 05:06:31;;;;;;;7.70;5.67;;;;;;;28.46;94.46;100687.55;1820245;78;21019;-82
2022/07/23 05:08:57;;;;;;;7.58;5.80;;;;;;;28.62;92.46;100694.27;1820396;78;20856;-83
2022/07/23 05:11:23;;;;;;;10.25;5.78;;;;;;;28.93;90.45;100699.90;1820459;78;20903;-87
2022/07/23 05:13:49;;;;;;;7.72;5.80;;;;;;;29.27;87.84;100700.39;1820682;78;20987;-82
2022/07/23 05:16:15;;;;;;;7.28;5.75;;;;;;;29.69;87.42;100695.77;1820575;78;21108;-84
2022/07/23 05:18:41;;;;;;;12.50;6.78;;;;;;;30.16;82.93;100690.44;1820406;78;20943;-84
2022/07/23 05:21:07;;;;;;;8.98;5.45;;;;;;;30.61;81.52;100692.38;1820387;78;20844;-81
2022/07/23 05:23:33;;;;;;;11.40;5.85;;;;;;;30.96;77.85;100691.05;1820476;78;20996;-86
2022/07/23 05:25:59;;;;;;;7.42;5.95;;;;;;;31.23;75.21;100691.44;1820599;78;20841;-83
2022/07/23 05:28:25;;;;;;;6.80;5.50;;;;;;;31.31;72.45;100691.45;1820530;78;21331;-83
2022/07/23 05:30:51;;;;;;;10.03;5.70;;;;;;;31.76;72.15;100683.42;1788320;78;20919;-81
2022/07/23 05:33:21;;;;;;;6.80;5.12;;;;;;;32.29;71.00;100685.22;1820575;78;21058;-84
2022/07/23 05:35:47;;;;;;;11.73;5.70;;;;;;;32.81;65.83;100692.30;1820155;78;21019;-82
2022/07/23 05:38:13;;;;;;;6.08;5.47;;;;;;;32.38;62.70;100694.53;1814756;78;20967;-83
2022/07/23 05:40:39;;;;;;;7.72;5.78;;;;;;;32.13;62.75;100694.86;1771296;81;21074;-82
2022/07/23 05:43:05;;;;;;;7.15;5.75;;;;;;;32.11;62.71;100690.28;1771092;80;20845;-83
2022/07/23 05:45:31;;;;;;;6.90;5.22;;;;;;;32.33;63.85;100694.37;1771241;79;21019;-82
2022/07/23 05:47:57;;;;;;;5.78;5.17;;;;;;;32.67;62.57;100693.80;1771173;80;20869;-78
2022/07/23 05:50:23;;;;;;;7.25;5.33;;;;;;;33.14;60.23;100690.07;1771150;81;21015;-84
2022/07/23 05:52:49;;;;;;;6.05;5.45;;;;;;;33.51;58.90;100686.55;1771439;80;21143;-81
2022/07/23 05:55:15;;;;;;;10.35;5.22;;;;;;;33.97;57.95;100692.20;1771106;81;21090;-82
2022/07/23 05:57:41;;;;;;;8.53;5.20;;;;;;;34.37;54.79;100695.33;1770801;81;21477;-82
2022/07/23 06:00:11;;;;;;;6.15;4.95;;;;;;;34.85;53.73;100699.03;1770920;81;21070;-83
2022/07/23 06:02:39;;;;;;;7.42;5.15;;;;;;;35.24;51.84;100697.81;1770628;81;21559;-84
2022/07/23 06:05:07;;;;;;;7.53;5.65;;;;;;;35.03;50.27;100698.95;1771354;81;21107;-82
2022/07/23 06:07:34;;;;;;;6.30;5.28;;;;;;;34.66;49.58;100676.13;1770944;81;20980;-82
2022/07/23 06:10:00;;;;;;;6.45;5.75;;;;;;;34.65;51.29;100694.73;1771091;81;20996;-81
2022/07/23 06:12:27;;;;;;;5.85;5.22;;;;;;;34.80;49.10;100698.92;1771393;80;21381;-82
2022/07/23 06:14:53;;;;;;;6.20;4.95;;;;;;;34.63;49.18;100696.58;1771307;80;20980;-82
2022/07/23 06:17:21;;;;;;;6.55;4.75;;;;;;;34.90;49.34;100699.35;1771274;80;21071;-82
2022/07/23 06:19:47;;;;;;;5.30;4.50;;;;;;;35.38;47.71;100702.97;1713803;83;21011;-81
2022/07/23 06:22:13;;;;;;;7.40;4.40;;;;;;;35.68;46.31;100702.02;1713942;83;21045;-87
2022/07/23 06:24:41;;;;;;;12.25;4.80;;;;;;;36.04;46.33;100702.14;1690134;83;21039;-81
2022/07/23 06:27:07;;;;;;;5.75;4.30;;;;;;;35.71;44.06;100703.38;1665578;83;21613;-82
2022/07/23 06:29:33;;;;;;;6.90;5.35;;;;;;;35.35;46.10;100701.80;1665684;84;21120;-86
2022/07/23 06:31:59;;;;;;;8.70;5.00;;;;;;;36.03;46.00;100704.72;1665654;84;20946;-81
2022/07/23 06:34:25;;;;;;;5.40;4.58;;;;;;;36.42;44.33;100706.55;1665879;84;21046;-83
2022/07/23 06:36:51;;;;;;;4.92;4.30;;;;;;;36.26;43.65;100707.28;1665675;84;21041;-81
2022/07/23 06:39:17;;;;;;;7.30;4.90;;;;;;;35.41;42.40;100710.52;1678156;83;21079;-81
2022/07/23 06:41:43;;;;;;;6.15;4.55;;;;;;;33.95;42.85;100712.83;1693949;83;21935;-81
2022/07/23 06:44:09;;;;;;;5.47;4.72;;;;;;;32.59;44.49;100711.17;1694051;83;20946;-82
2022/07/23 06:46:35;;;;;;;5.62;4.65;;;;;;;32.01;48.25;100723.80;1693895;83;20986;-82
2022/07/23 06:49:02;;;;;;;7.78;4.70;;;;;;;31.60;47.88;100721.48;1694138;83;21053;-81
2022/07/23 06:51:27;;;;;;;6.12;5.40;;;;;;;30.75;49.29;100727.19;1694176;84;20990;-80
2022/07/23 06:53:54;;;;;;;7.10;5.20;;;;;;;30.02;51.15;100724.52;1693981;83;21051;-81
2022/07/23 06:56:20;;;;;;;7.03;4.78;;;;;;;29.44;55.13;100728.89;1693856;83;21010;-81
2022/07/23 06:58:46;;;;;;;5.55;4.72;;;;;;;29.49;56.58;100727.16;1693969;84;21605;-82
2022/07/23 07:01:18;;;;;;;7.33;4.58;;;;;;;30.05;57.54;100733.47;1693840;84;21126;-81
2022/07/23 07:03:44;;;;;;;6.45;4.92;;;;;;;29.79;56.96;100731.73;1693898;83;21153;-82
2022/07/23 07:06:10;;;;;;;9.60;4.67;;;;;;;29.83;59.52;100728.41;1694149;84;21281;-81
2022/07/23 07:08:36;;;;;;;5.00;4.47;;;;;;;30.95;57.92;100738.78;1694115;83;21492;-82
2022/07/23 07:11:03;;;;;;;6.47;4.17;;;;;;;31.48;54.84;100732.45;1694013;83;21006;-83
2022/07/23 07:13:29;;;;;;;7.17;3.98;;;;;;;32.03;52.51;100731.97;1693936;83;21041;-83
2022/07/23 07:15:55;;;;;;;9.88;4.12;;;;;;;32.34;51.84;100739.98;1704852;81;21070;-82
2022/07/23 07:18:21;;;;;;;6.40;4.20;;;;;;;33.00;52.06;100743.45;1749535;81;21958;-84
2022/07/23 07:20:47;;;;;;;9.38;4.00;;;;;;;33.62;48.64;100736.73;1749370;81;21029;-83
2022/07/23 07:23:14;;;;;;;5.53;4.00;;;;;;;33.99;47.29;100742.14;1760103;78;20979;-84
2022/07/23 07:25:40;;;;;;;6.03;4.10;;;;;;;34.10;45.72;100735.85;1785999;78;20960;-84
2022/07/23 07:28:06;;;;;;;4.15;3.75;;;;;;;34.45;46.01;100733.81;1809123;78;21034;-81
2022/07/23 07:30:32;;;;;;;5.12;3.98;;;;;;;34.72;45.05;100723.44;1809039;78;21118;-83
2022/07/23 07:32:58;;;;;;;9.03;3.80;;;;;;;34.94;44.53;100730.89;1809400;78;20969;-83
2022/07/23 07:35:25;;;;;;;5.37;3.90;;;;;;;35.18;43.69;100737.94;1809307;79;20951;-83
2022/07/23 07:37:53;;;;;;;4.12;3.65;;;;;;;35.47;42.83;100738.23;1809280;78;21035;-82
2022/07/23 07:40:22;;;;;;;4.92;3.12;;;;;;;35.66;41.71;100737.52;1770428;80;21035;-81
2022/07/23 07:42:53;;;;;;;6.45;3.58;;;;;;;35.94;41.18;100735.37;1770285;81;21477;-82
2022/07/23 07:45:25;;;;;;;;;;;;;;;36.43;40.63;100726.38;1773324;81;20996;-82
2022/07/23 07:47:53;;;;;;;9.40;3.00;;;;;;;37.10;39.34;100729.66;1756873;81;20189;-83
2022/07/23 07:50:21;;;;;;;6.25;3.10;;;;;;;36.23;37.92;100742.63;1673439;85;21033;-82
2022/07/23 07:52:47;;;;;;;5.28;3.47;;;;;;;34.05;38.35;100751.69;1673610;85;21084;-81
2022/07/23 07:55:13;;;;;;;3.33;3.00;;;;;;;32.92;40.47;100752.27;1673269;85;21201;-83
2022/07/23 07:57:39;;;;;;;3.20;2.90;;;;;;;33.50;42.57;100747.80;1673302;85;21510;-82
2022/07/23 08:00:08;;;;;;;4.90;2.70;;;;;;;34.33;40.79;100740.16;1673347;85;21044;-80
2022/07/23 08:02:52;;;;;;;7.22;3.15;;;;;;;34.27;40.28;100746.03;1673328;85;21075;-82
2022/07/23 08:05:27;;;;;;;6.67;3.42;;;;;;;33.67;41.45;100749.66;1673650;85;21056;-83
2022/07/23 08:07:55;;;;;;;5.60;2.87;;;;;;;33.48;42.12;100746.84;1673476;85;21297;-83
2022/07/23 08:10:21;;;;;;;3.47;3.17;;;;;;;34.09;41.22;100753.83;1673114;85;21052;-83
2022/07/23 08:12:51;;;;;;;3.15;2.62;;;;;;;33.87;40.71;100758.25;1673457;85;20973;-82
2022/07/23 08:15:20;;;;;;;4.55;3.00;;;;;;;33.88;41.42;100757.03;1673467;85;21011;-83
2022/07/23 08:17:47;;;;;;;4.47;3.58;;;;;;;33.78;40.79;100759.95;1673495;85;20989;-82
2022/07/23 08:20:17;;;;;;;5.20;3.40;;;;;;;32.95;40.31;100770.98;1664750;85;21253;-83
2022/07/23 08:22:59;;;;;;;5.20;3.02;;;;;;;32.72;41.12;100766.73;1664915;85;21057;-81
2022/07/23 08:25:32;;;;;;;3.92;2.80;;;;;;;32.81;41.58;100763.48;1664498;85;21042;-82
2022/07/23 08:28:00;;;;;;;3.25;2.67;;;;;;;32.45;43.31;100764.30;1637727;86;21046;-82
2022/07/23 08:30:27;;;;;;;5.05;2.87;;;;;;;33.08;42.51;100757.35;1637357;87;21657;-81
2022/07/23 08:33:00;;;;;;;10.03;3.25;;;;;;;32.98;42.12;100752.02;1637049;87;21826;-81
2022/07/23 08:35:36;;;;;;;4.58;3.00;;;;;;;33.21;41.65;100748.08;1637784;86;21082;-83
2022/07/23 08:38:05;;;;;;;4.60;3.20;;;;;;;33.82;41.45;100743.31;1611436;87;21580;-83
2022/07/23 08:40:34;;;;;;;4.85;2.95;;;;;;;34.27;39.35;100750.81;1610930;87;21023;-82
2022/07/23 08:43:05;;;;;;;4.30;2.70;;;;;;;33.31;39.35;100752.59;1590015;88;21121;-82
2022/07/23 08:45:36;;;;;;;6.55;2.80;;;;;;;33.37;41.13;100750.33;1608298;88;21256;-82
2022/07/23 08:48:03;;;;;;;3.20;2.50;;;;;;;33.62;40.16;100747.34;1666116;85;21049;-84
2022/07/23 08:50:29;;;;;;;5.62;2.55;;;;;;;34.05;40.35;100737.70;1680770;85;21017;-82
2022/07/23 08:52:56;;;;;;;2.55;2.35;;;;;;;35.22;38.97;100745.08;1680665;85;21114;-83
2022/07/23 08:55:23;;;;;;;6.72;3.20;;;;;;;34.46;38.02;100745.18;1680396;85;21123;-81
2022/07/23 08:57:52;;;;;;;4.30;3.20;;;;;;;33.51;38.57;100748.05;1680529;85;21163;-82
2022/07/23 09:00:21;;;;;;;5.08;2.30;;;;;;;33.48;39.03;100741.25;1680595;85;21551;-85
2022/07/23 09:02:48;;;;;;;4.40;2.47;;;;;;;33.57;39.43;100738.61;1680590;84;21357;-82
2022/07/23 09:05:16;;;;;;;3.10;2.40;;;;;;;34.01;39.49;100739.73;1680341;84;21054;-84
2022/07/23 09:08:06;;;;;;;5.20;2.77;;;;;;;34.31;38.03;100736.97;1680856;85;21063;-83
2022/07/23 09:10:49;;;;;;;3.35;2.67;;;;;;;34.23;39.03;100738.27;1680414;85;21929;-82
2022/07/23 09:13:29;;;;;;;4.90;2.50;;;;;;;33.65;40.17;100749.88;1661060;85;21123;-84
2022/07/23 09:16:03;;;;;;;3.17;2.75;;;;;;;33.17;39.37;100745.11;1659178;85;21078;-83
2022/07/23 09:18:39;;;;;;;4.80;2.80;;;;;;;33.33;39.45;100745.99;1660365;85;21543;-84
2022/07/23 09:21:12;;;;;;;2.50;2.10;;;;;;;33.89;39.59;100741.86;1590519;90;21062;-84
2022/07/23 09:23:42;;;;;;;2.52;2.30;;;;;;;34.23;38.63;100736.88;1591013;89;21275;-83
2022/07/23 09:26:29;;;;;;;5.70;2.50;;;;;;;33.93;40.04;100746.79;1596734;89;21063;-83
2022/07/23 09:29:07;;;;;;;2.75;2.55;;;;;;;34.40;38.34;100741.27;1607988;89;21542;-82
2022/07/23 09:31:55;;;;;;;3.00;2.50;;;;;;;33.65;38.79;100748.48;1567501;91;21091;-82
2022/07/23 09:34:32;;;;;;;3.77;2.75;;;;;;;32.64;39.42;100754.02;1583214;88;21583;-82
2022/07/23 09:37:13;;;;;;;6.65;2.80;;;;;;;31.84;40.87;100750.50;1625592;88;21866;-83
2022/07/23 09:39:40;;;;;;;5.50;2.95;;;;;;;31.28;41.28;100756.30;1624763;88;21223;-83
2022/07/23 09:42:24;;;;;;;2.22;2.00;;;;;;;31.06;42.45;100754.91;1625951;88;21027;-83
2022/07/23 09:44:54;;;;;;;5.20;2.50;;;;;;;31.39;43.07;100748.78;1625316;88;21066;-82
2022/07/23 09:47:23;;;;;;;3.45;2.37;;;;;;;30.94;42.66;100751.09;1604182;88;21097;-83
2022/07/23 09:50:04;;;;;;;6.53;2.47;;;;;;;30.48;43.80;100744.22;1591797;89;21283;-83
2022/07/23 09:52:34;;;;;;;4.22;2.37;;;;;;;30.91;44.76;100740.75;1508605;95;21046;-84
2022/07/23 09:55:04;;;;;;;2.70;2.30;;;;;;;31.67;44.47;100732.01;1550015;90;21181;-82
2022/07/23 09:57:32;;;;;;;2.72;2.12;;;;;;;31.56;42.03;100731.25;1547178;92;21259;-81
2022/07/23 10:00:03;;;;;;;4.30;2.00;;;;;;;31.30;42.86;100733.04;1547133;92;21158;-84
2022/07/23 10:02:32;;;;;;;2.60;1.95;;;;;;;30.91;43.14;100734.58;1547101;92;22020;-82
2022/07/23 10:05:00;;;;;;;3.20;2.30;;;;;;;30.45;42.93;100745.00;1547153;92;21118;-84
2022/07/23 10:07:29;;;;;;;3.27;2.20;;;;;;;30.00;43.98;100737.44;1547262;92;21074;-82
2022/07/23 10:09:55;;;;;;;5.50;2.10;;;;;;;29.71;44.87;100733.70;1546968;92;21067;-83
2022/07/23 10:14:50;;;;;;;4.50;2.08;;;;;;;30.46;45.10;100726.32;1486462;96;21122;-82
2022/07/23 10:17:17;;;;;;;6.47;2.30;;;;;;;30.54;45.85;100723.16;1506339;91;21081;-82
2022/07/23 10:19:45;;;;;;;2.80;2.12;;;;;;;30.81;45.52;100734.59;1561439;91;21640;-82
2022/07/23 10:22:37;;;;;;;5.17;2.20;;;;;;;30.65;45.14;100726.55;1561510;91;21156;-82
2022/07/23 10:25:34;;;;;;;4.20;2.47;;;;;;;30.64;45.55;100724.38;1577768;89;21072;-82
2022/07/23 10:28:32;;;;;;;4.97;2.27;;;;;;;30.43;44.76;100728.50;1507001;94;21724;-83
2022/07/23 10:31:33;;;;;;;3.27;2.30;;;;;;;29.97;45.54;100725.68;1506831;95;21123;-81
2022/07/23 10:34:10;;;;;;;5.85;2.15;;;;;;;29.81;45.71;100721.04;1504012;95;21098;-82
2022/07/23 10:36:42;;;;;;;5.15;2.00;;;;;;;29.85;46.65;100714.30;1507158;95;21083;-79
2022/07/23 10:40:38;;;;;;;5.22;1.95;;;;;;;29.82;47.26;100713.69;1443073;98;21185;-82
2022/07/23 10:42:31;;;;;;;4.75;2.30;;;;;;;29.74;46.85;100715.42;1404609;100;21023;-83
2022/07/23 10:44:57;;;;;;;5.90;2.22;;;;;;;29.71;47.82;100724.53;1475046;96;21877;-82
2022/07/23 10:47:39;;;;;;;2.67;2.00;;;;;;;29.67;47.33;100717.58;1491436;96;21696;-88
2022/07/23 10:50:34;;;;;;;2.63;2.23;;;;;;;29.66;47.39;100720.16;1488410;95;21558;-78
2022/07/23 10:53:17;;;;;;;2.90;2.35;;;;;;;29.43;48.01;100710.65;1564197;89;21651;-82
2022/07/23 10:55:51;;;;;;;3.02;2.17;;;;;;;29.39;49.13;100706.46;1577094;91;21143;-87
2022/07/23 10:58:23;;;;;;;6.55;2.02;;;;;;;29.27;48.29;100705.38;1580459;89;21122;-81
2022/07/23 11:00:50;;;;;;;2.42;1.90;;;;;;;29.07;48.32;100705.41;1605625;89;21635;-82
2022/07/23 11:03:35;;;;;;;7.87;2.37;;;;;;;28.89;49.15;100699.67;1605499;89;21587;-82
2022/07/23 11:06:01;;;;;;;3.58;2.10;;;;;;;28.97;49.16;100696.59;1605188;89;21082;-81
2022/07/23 11:08:27;;;;;;;3.40;2.20;;;;;;;29.49;50.34;100688.87;1605610;89;21241;-83
2022/07/23 11:11:08;;;;;;;3.75;2.40;;;;;;;29.81;49.03;100699.61;1605493;89;21072;-83
2022/07/23 11:13:42;;;;;;;2.92;2.47;;;;;;;29.79;48.59;100697.01;1594629;90;21156;-86
2022/07/23 11:16:15;;;;;;;3.33;2.00;;;;;;;29.90;48.88;100695.09;1571024;90;21074;-81
2022/07/23 11:18:57;;;;;;;3.85;2.05;;;;;;;29.96;47.68;100692.73;1530178;93;21278;-84
2022/07/23 11:21:31;;;;;;;1.73;1.63;;;;;;;29.87;46.84;100701.42;1530093;93;21127;-83
2022/07/23 11:24:11;;;;;;;9.08;2.33;;;;;;;29.70;47.23;100700.13;1530185;93;21130;-84
2022/07/23 11:27:02;;;;;;;15.63;3.35;;;;;;;29.53;49.39;100710.51;1530054;93;21076;-80
2022/07/23 11:29:35;;;;;;;9.73;2.62;;;;;;;28.22;61.70;100716.55;1530113;93;21044;-82